San Miguel de Allende, Mexico

6:07 PM CST on November 20, 2014 (GMT -0600)
IGUANAJU3 | Change Station
CLOSE
Current Station
Personal Weather Station
Location: San Miguel De Allende, GTO
Elevation: 6237 ft
Nearby Weather Stations

Elev 6237 ft 20.97 °N, 100.79 °W | Updated 2 seconds ago

Mostly Cloudy
Mostly Cloudy
65.3 °F
Feels Like 65.3 °F
N
0.0
Wind Variable Wind from SE
Gusts 1.0 mph

Today
High -- | Low -- °F
--% Chance of Precip.
Yesterday
High -- | Low -- °F
Precip. -- in
6:56 AM 6:00 PM
Waning Crescent, 3% visible
Pressure 30.23 in
Visibility 6.0 miles
Clouds Scattered Clouds 2000 ft
Mostly Cloudy 12000 ft
Mostly Cloudy 25000 ft
Dew Point 51 °F
Humidity 60%
Rainfall 0.00 in
Snow Depth Not available.
UV 0 out of 12
Pollen Not available.
Air Quality Not available.
Flu Activity Not available.
METAR MMQT 202345Z 29005KT 6SM SCT020TCU BKN120 BKN250 19/08 A3023 RMK 8/272 HZY

More Conditions Fewer Conditions

Pressure 30.23 in
Visibility 6.0 miles
Clouds Scattered Clouds 2000 ft
Mostly Cloudy 12000 ft
Mostly Cloudy 25000 ft
Dew Point 51 °F
Humidity 60%
Rainfall 0.00 in
Snow Depth Not available.
UV 0 out of 12
Pollen Not available.
Air Quality Not available.
Flu Activity Not available.
METAR MMQT 202345Z 29005KT 6SM SCT020TCU BKN120 BKN250 19/08 A3023 RMK 8/272 HZY

More Conditions Fewer Conditions

10-Day Weather Forecast

Almanac

Astronomy

Nov. 20, 2014 Rise Set
Actual Time
Civil Twilight
Nautical Twilight
Astronomical Twilight
Moon
Length of Visible Light
Length of Day
Tomorrow will be .
, % of the Moon is Illuminated

Today's Extremes

Country Highs Country Lows

Community

WunderPhotos

Upload Photos

1,772,554 photos uploaded!

WunderBlogs® & News

Nearby

Air Quality

  Air Quality AQ Index Pollutant
Not available.

Snow Depth

Station Depth Elevation

Earthquake Activity

City Distance Mag. Time & Date
Minimum magnitude displayed is 2.5.

Coastal Water Temperatures

Place Temperature

Nearby Weather Stations